Peru, Nebraska
Current Conditions -  °F | °C
As of 6:35 AM on Monday 24 Nov 2014 (Local Time) from KAFK Reporting Station
Overcast Overcast  
Wind Chill: -6°   Ceiling: 3000
Heat Index: -1°   Visibility: 10mi
Dew Point: -7°   Wind: 12mph
Humidity: 64%   Direction: 330°NNW
Pressure: 29.63"   Gusts: 20mph
Location:  40.47°N, 95.73°W
Report Text: KAFK 241235Z AUTO 33010G17KT 10SM OVC030 M01/M07 A2963 RMK AO2 T10101071
Loading
Personal Weather Stations






























Interactive Weather Map New forecast layout! Learn more

10-Day Weather Forecast

Advertisements
Track Severe Weather on mobile